Varamar — CURZ9 — position and weather

sailwx.info

Track history (hours):
 
Tides and Currents Weather Stations Pressure Air Temp Water Temp Dewpoint Dewpoint Depression Visibility Wind Speed Wind Dir Waves Ship Positions

Varamar

Last reported at 2018-Jun-21 06:52 UTC. Time now 2018-Jun-21 12:29 UTC.
Position N 38°26' W 009°07'.

Length 18 m.

Type: Fishing. MMSI: 255512000.

Date/timePositionNaut miles runAvg speedWind from/ knotsBaromVisibWave heightAir tempDewpointWater temp
2018-Jun-21 06:52N 38°26' W 009°07'0 0.4
2018-Jun-21 06:29N 38°26' W 009°07'1 1.8
2018-Jun-21 06:00N 38°26' W 009°07'5 9.1
2018-Jun-21 05:31N 38°24' W 009°13'5 9.3
2018-Jun-21 05:00N 38°26' W 009°19'5 9.0
2018-Jun-21 04:28N 38°27' W 009°25'4 9.0
2018-Jun-21 04:01N 38°28' W 009°30'5 9.3
2018-Jun-21 03:29N 38°30' W 009°36'4 9.1
2018-Jun-21 02:59N 38°31' W 009°41'5 9.4
2018-Jun-21 02:30N 38°32' W 009°47'4 6.4
2018-Jun-21 01:53N 38°35' W 009°50'2 5.9
2018-Jun-21 01:28N 38°37' W 009°52'1 1.6
2018-Jun-21 00:59N 38°37' W 009°51'1 2.4
2018-Jun-21 00:30N 38°36' W 009°51'0 0.7
2018-Jun-21 00:00N 38°36' W 009°52'0 0.1
2018-Jun-20 23:30N 38°36' W 009°52'0 0.6
2018-Jun-20 23:00N 38°36' W 009°52'0 0.6
2018-Jun-20 22:30N 38°35' W 009°51'0 0.9
2018-Jun-20 22:00N 38°35' W 009°51'0 0.7
2018-Jun-20 21:30N 38°35' W 009°51'1 1.0
2018-Jun-20 21:00N 38°34' W 009°51'0 0.9
2018-Jun-20 20:30N 38°34' W 009°50'0 1.0
2018-Jun-20 20:00N 38°33' W 009°50'0 0.9
2018-Jun-20 19:30N 38°33' W 009°50'0 0.8
2018-Jun-20 19:00N 38°33' W 009°50'0 0.9
2018-Jun-20 18:30N 38°32' W 009°50'3 5.4
2018-Jun-20 18:01N 38°34' W 009°52'4 7.4
2018-Jun-20 17:31N 38°38' W 009°53'3 6.9
2018-Jun-20 17:00N 38°41' W 009°52'0 0.6
2018-Jun-20 16:30N 38°41' W 009°51'1 2.0
2018-Jun-20 15:54N 38°40' W 009°52'0 0.4
2018-Jun-20 15:31N 38°40' W 009°52'0 0.6
2018-Jun-20 15:00N 38°40' W 009°52'0 0.8
2018-Jun-20 14:31N 38°39' W 009°52'0 0.8
2018-Jun-20 14:01N 38°39' W 009°52'0 0.8
2018-Jun-20 13:30N 38°39' W 009°52'0 0.8
2018-Jun-20 13:00N 38°38' W 009°53'0 1.0
2018-Jun-20 12:30N 38°38' W 009°53'0 0.9
2018-Jun-20 12:00N 38°37' W 009°53'1 1.0
2018-Jun-20 11:30N 38°37' W 009°53'0 0.8
2018-Jun-20 11:00N 38°36' W 009°53'0 0.8
2018-Jun-20 10:31N 38°36' W 009°53'4 8.1
2018-Jun-20 09:59N 38°35' W 009°48'5 8.4
2018-Jun-20 09:25N 38°33' W 009°42'4 8.6
2018-Jun-20 08:59N 38°32' W 009°37'4 8.8
2018-Jun-20 08:30N 38°30' W 009°32'5 9.0
2018-Jun-20 07:59N 38°29' W 009°27'5 9.2
2018-Jun-20 07:28N 38°27' W 009°21'4 9.2
2018-Jun-20 07:00N 38°25' W 009°16'4 8.7
2018-Jun-20 06:31N 38°25' W 009°11'3 6.8
2018-Jun-20 06:00N 38°26' W 009°07'0 0.0
2018-Jun-19 10:03N 38°26' W 009°07'0 0.0
2018-Jun-19 10:00N 38°26' W 009°07'0 0.1
2018-Jun-19 09:30N 38°26' W 009°07'0 0.0
2018-Jun-19 09:00N 38°26' W 009°07'11 6.7
2018-Jun-19 07:18N 38°28' W 009°21'2 8.6
2018-Jun-19 07:00N 38°29' W 009°24'4 8.6
2018-Jun-19 06:29N 38°30' W 009°30'4 8.7
2018-Jun-19 05:58N 38°31' W 009°35'4 9.0
2018-Jun-19 05:31N 38°32' W 009°40'5 8.8
2018-Jun-19 05:00N 38°32' W 009°46'3 6.8
2018-Jun-19 04:30N 38°34' W 009°50'3 5.7
2018-Jun-19 04:00N 38°36' W 009°51'2 3.4
2018-Jun-19 03:31N 38°38' W 009°52'2 4.4
2018-Jun-19 03:01N 38°36' W 009°51'0 0.0
2018-Jun-19 02:30N 38°36' W 009°51'0 0.3
2018-Jun-19 02:01N 38°36' W 009°51'0 0.6
2018-Jun-19 01:30N 38°35' W 009°51'0 0.5
2018-Jun-19 00:57N 38°35' W 009°51'0 0.6
2018-Jun-19 00:30N 38°35' W 009°51'0 0.5
2018-Jun-19 00:01N 38°35' W 009°51'0 0.7
2018-Jun-18 23:30N 38°34' W 009°50'0 0.7
2018-Jun-18 23:00N 38°34' W 009°50'0 0.7
2018-Jun-18 22:31N 38°34' W 009°50'0 0.5
2018-Jun-18 22:00N 38°33' W 009°50'0 0.8
2018-Jun-18 21:30N 38°33' W 009°50'0 0.8
2018-Jun-18 21:01N 38°33' W 009°50'0 0.8
2018-Jun-18 20:30N 38°32' W 009°49'3 5.1
2018-Jun-18 20:00N 38°34' W 009°51'4 7.8
2018-Jun-18 19:30N 38°38' W 009°53'3 6.1
2018-Jun-18 19:00N 38°41' W 009°52'1 2.7
2018-Jun-18 18:31N 38°42' W 009°51'1 2.9
2018-Jun-18 18:00N 38°41' W 009°51'0 0.4
2018-Jun-18 17:31N 38°40' W 009°52'0 0.6
2018-Jun-18 17:00N 38°40' W 009°52'0 0.8
2018-Jun-18 16:31N 38°40' W 009°52'0 0.6
2018-Jun-18 16:00N 38°39' W 009°52'0 0.8
2018-Jun-18 15:30N 38°39' W 009°52'0 0.9
2018-Jun-18 15:00N 38°39' W 009°52'0 1.0
2018-Jun-18 14:31N 38°38' W 009°53'0 1.0
2018-Jun-18 14:01N 38°38' W 009°53'0 1.0
2018-Jun-18 13:31N 38°37' W 009°53'0 0.7
2018-Jun-18 13:01N 38°37' W 009°53'1 1.0
2018-Jun-18 12:30N 38°36' W 009°53'0 0.8
2018-Jun-18 12:01N 38°36' W 009°53'1 2.6
2018-Jun-18 11:31N 38°36' W 009°54'1 2.6
2018-Jun-18 11:00N 38°37' W 009°53'2 3.2
2018-Jun-18 10:29N 38°36' W 009°52'4 7.8
2018-Jun-18 09:58N 38°35' W 009°47'4 8.0
2018-Jun-18 09:30N 38°33' W 009°42'4 8.0
2018-Jun-18 09:00N 38°32' W 009°37'4 8.3
2018-Jun-18 08:30N 38°31' W 009°32'4 8.2
2018-Jun-18 08:00N 38°30' W 009°28'4 8.3
2018-Jun-18 07:29N 38°28' W 009°22'4 8.6
2018-Jun-18 06:59N 38°26' W 009°18'4 8.9
2018-Jun-18 06:30N 38°24' W 009°12'5 9.4
2018-Jun-18 06:00N 38°26' W 009°07'  
2018-Jun-14 08:15N 38°26' W 009°07'0 0.4
2018-Jun-14 08:00N 38°26' W 009°07'0 0.1
2018-Jun-14 07:30N 38°26' W 009°07'4 7.1
2018-Jun-14 06:58N 38°25' W 009°11'8 8.6
2018-Jun-14 06:01N 38°27' W 009°21'0 9.0
2018-Jun-14 05:59N 38°27' W 009°21'5 9.0
2018-Jun-14 05:26N 38°28' W 009°28'5 8.7
2018-Jun-14 04:54N 38°29' W 009°33'9 8.3
2018-Jun-14 03:48N 38°31' W 009°45'9 5.2
2018-Jun-14 02:08N 38°37' W 009°52'1 5.7
2018-Jun-14 01:57N 38°38' W 009°51'2 2.9
2018-Jun-14 01:25N 38°37' W 009°52'0 0.5
2018-Jun-14 00:51N 38°36' W 009°52'0 0.8
2018-Jun-14 00:30N 38°36' W 009°52'0 0.8
2018-Jun-13 23:54N 38°36' W 009°52'0 0.8
2018-Jun-13 23:22N 38°35' W 009°51'0 0.8
2018-Jun-13 22:57N 38°35' W 009°51'0 1.0
2018-Jun-13 22:28N 38°35' W 009°51'1 1.0
2018-Jun-13 21:57N 38°34' W 009°51'1 0.8
2018-Jun-13 20:28N 38°33' W 009°50'9 2.8
2018-Jun-13 17:15N 38°42' W 009°51'0 1.1
2018-Jun-13 17:00N 38°42' W 009°51'1 2.0
2018-Jun-13 16:16N 38°41' W 009°51'0 0.4
2018-Jun-13 16:01N 38°41' W 009°51'0 0.7
2018-Jun-13 15:30N 38°40' W 009°52'0 0.7
2018-Jun-13 15:00N 38°40' W 009°52'0 0.9
2018-Jun-13 14:30N 38°39' W 009°52'0 0.8
2018-Jun-13 13:59N 38°39' W 009°52'1 1.1
2018-Jun-13 13:30N 38°39' W 009°52'1 1.1
2018-Jun-13 12:59N 38°38' W 009°53'1 1.1
2018-Jun-13 12:31N 38°38' W 009°53'1 1.0
2018-Jun-13 11:59N 38°37' W 009°53'1 1.1
2018-Jun-13 11:18N 38°36' W 009°53'0 1.0
2018-Jun-13 11:00N 38°36' W 009°53'3 4.2
2018-Jun-13 10:15N 38°35' W 009°49'2 8.2
2018-Jun-13 09:58N 38°34' W 009°46'4 8.2
2018-Jun-13 09:30N 38°33' W 009°41'5 8.4
2018-Jun-13 08:52N 38°31' W 009°35'3 8.1
2018-Jun-13 08:31N 38°30' W 009°32'4 8.2
2018-Jun-13 08:01N 38°29' W 009°27'5 8.6
2018-Jun-13 07:29N 38°27' W 009°21'5 8.8
2018-Jun-13 06:56N 38°25' W 009°16'4 8.6
2018-Jun-13 06:27N 38°25' W 009°10'3 7.6
2018-Jun-13 06:01N 38°26' W 009°07'0 0.2
2018-Jun-13 05:30N 38°26' W 009°07'0 0.0
2018-Jun-12 08:16N 38°26' W 009°07'0 0.0
2018-Jun-12 07:57N 38°26' W 009°07'2 3.9
2018-Jun-12 07:30N 38°25' W 009°09'4 8.5
2018-Jun-12 07:00N 38°25' W 009°14'5 9.0
2018-Jun-12 06:28N 38°26' W 009°20'4 8.8
2018-Jun-12 05:58N 38°27' W 009°25'5 9.0
2018-Jun-12 05:28N 38°28' W 009°31'5 8.8
2018-Jun-12 04:56N 38°30' W 009°37'4 8.7
2018-Jun-12 04:30N 38°31' W 009°41'5 8.5
2018-Jun-12 03:58N 38°32' W 009°47'4 5.7
2018-Jun-12 03:14N 38°35' W 009°51'3 5.1
2018-Jun-12 02:40N 38°38' W 009°52'1 5.2
2018-Jun-12 02:30N 38°38' W 009°51'1 2.5
2018-Jun-12 01:59N 38°37' W 009°52'0 0.8
2018-Jun-12 01:26N 38°37' W 009°52'1 1.4
2018-Jun-12 00:58N 38°38' W 009°52'1 1.7
2018-Jun-12 00:30N 38°37' W 009°52'1 1.6
2018-Jun-12 00:00N 38°36' W 009°51'0 1.0
2018-Jun-11 23:30N 38°36' W 009°51'1 1.0
2018-Jun-11 23:00N 38°36' W 009°51'1 1.0
2018-Jun-11 22:30N 38°35' W 009°50'0 0.6
2018-Jun-11 22:00N 38°35' W 009°50'1 1.1
2018-Jun-11 21:30N 38°34' W 009°50'0 0.9
2018-Jun-11 21:00N 38°34' W 009°50'0 0.8
2018-Jun-11 20:30N 38°34' W 009°50'0 1.0
2018-Jun-11 20:00N 38°33' W 009°49'0 0.9
2018-Jun-11 19:29N 38°33' W 009°49'1 1.5
2018-Jun-11 18:57N 38°33' W 009°50'6 6.7
2018-Jun-11 18:00N 38°39' W 009°53'3 6.0
2018-Jun-11 17:30N 38°42' W 009°51'1 2.4
2018-Jun-11 17:00N 38°41' W 009°51'0 0.6
2018-Jun-11 16:29N 38°41' W 009°52'0 0.9
2018-Jun-11 16:00N 38°40' W 009°52'0 0.7
2018-Jun-11 15:30N 38°40' W 009°52'0 0.7
2018-Jun-11 15:00N 38°40' W 009°52'0 0.8
2018-Jun-11 14:30N 38°39' W 009°53'0 0.8
2018-Jun-11 14:00N 38°39' W 009°53'1 1.0
2018-Jun-11 13:30N 38°38' W 009°53'0 0.8
2018-Jun-11 13:00N 38°38' W 009°53'1 1.1
2018-Jun-11 12:30N 38°37' W 009°53'1 1.0
2018-Jun-11 12:00N 38°37' W 009°53'1 1.1
2018-Jun-11 11:30N 38°36' W 009°53'1 1.1
2018-Jun-11 11:00N 38°36' W 009°53'3 4.8
2018-Jun-11 10:28N 38°35' W 009°50'4 8.6
2018-Jun-11 10:00N 38°33' W 009°45'4 8.5
2018-Jun-11 09:30N 38°32' W 009°40'5 8.3
2018-Jun-11 08:54N 38°31' W 009°34'4 8.3
2018-Jun-11 08:25N 38°29' W 009°29'4 8.7
2018-Jun-11 08:00N 38°28' W 009°25'4 8.6
2018-Jun-11 07:30N 38°26' W 009°20'4 8.4
2018-Jun-11 07:00N 38°25' W 009°15'  
Track history (hours):
 
Tides and Currents Weather Stations Pressure Air Temp Water Temp Dewpoint Dewpoint Depression Visibility Wind Speed Wind Dir Waves Ship Positions

Varamar

Last reported at 2018-Jun-21 06:52 UTC. Time now 2018-Jun-21 12:29 UTC.
Position N 38°26' W 009°07'.

Length 18 m.

Type: Fishing. MMSI: 255512000.

Date/timePositionNaut miles runAvg speedWind from/ knotsBaromVisibWave heightAir tempDewpointWater temp
2018-Jun-21 06:52N 38°26' W 009°07'0 0.4
2018-Jun-21 06:29N 38°26' W 009°07'1 1.8
2018-Jun-21 06:00N 38°26' W 009°07'5 9.1
2018-Jun-21 05:31N 38°24' W 009°13'5 9.3
2018-Jun-21 05:00N 38°26' W 009°19'5 9.0
2018-Jun-21 04:28N 38°27' W 009°25'4 9.0
2018-Jun-21 04:01N 38°28' W 009°30'5 9.3
2018-Jun-21 03:29N 38°30' W 009°36'4 9.1
2018-Jun-21 02:59N 38°31' W 009°41'5 9.4
2018-Jun-21 02:30N 38°32' W 009°47'4 6.4
2018-Jun-21 01:53N 38°35' W 009°50'2 5.9
2018-Jun-21 01:28N 38°37' W 009°52'1 1.6
2018-Jun-21 00:59N 38°37' W 009°51'1 2.4
2018-Jun-21 00:30N 38°36' W 009°51'0 0.7
2018-Jun-21 00:00N 38°36' W 009°52'0 0.1
2018-Jun-20 23:30N 38°36' W 009°52'0 0.6
2018-Jun-20 23:00N 38°36' W 009°52'0 0.6
2018-Jun-20 22:30N 38°35' W 009°51'0 0.9
2018-Jun-20 22:00N 38°35' W 009°51'0 0.7
2018-Jun-20 21:30N 38°35' W 009°51'1 1.0
2018-Jun-20 21:00N 38°34' W 009°51'0 0.9
2018-Jun-20 20:30N 38°34' W 009°50'0 1.0
2018-Jun-20 20:00N 38°33' W 009°50'0 0.9
2018-Jun-20 19:30N 38°33' W 009°50'0 0.8
2018-Jun-20 19:00N 38°33' W 009°50'0 0.9
2018-Jun-20 18:30N 38°32' W 009°50'3 5.4
2018-Jun-20 18:01N 38°34' W 009°52'4 7.4
2018-Jun-20 17:31N 38°38' W 009°53'3 6.9
2018-Jun-20 17:00N 38°41' W 009°52'0 0.6
2018-Jun-20 16:30N 38°41' W 009°51'1 2.0
2018-Jun-20 15:54N 38°40' W 009°52'0 0.4
2018-Jun-20 15:31N 38°40' W 009°52'0 0.6
2018-Jun-20 15:00N 38°40' W 009°52'0 0.8
2018-Jun-20 14:31N 38°39' W 009°52'0 0.8
2018-Jun-20 14:01N 38°39' W 009°52'0 0.8
2018-Jun-20 13:30N 38°39' W 009°52'0 0.8
2018-Jun-20 13:00N 38°38' W 009°53'0 1.0
2018-Jun-20 12:30N 38°38' W 009°53'0 0.9
2018-Jun-20 12:00N 38°37' W 009°53'1 1.0
2018-Jun-20 11:30N 38°37' W 009°53'0 0.8
2018-Jun-20 11:00N 38°36' W 009°53'0 0.8
2018-Jun-20 10:31N 38°36' W 009°53'4 8.1
2018-Jun-20 09:59N 38°35' W 009°48'5 8.4
2018-Jun-20 09:25N 38°33' W 009°42'4 8.6
2018-Jun-20 08:59N 38°32' W 009°37'4 8.8
2018-Jun-20 08:30N 38°30' W 009°32'5 9.0
2018-Jun-20 07:59N 38°29' W 009°27'5 9.2
2018-Jun-20 07:28N 38°27' W 009°21'4 9.2
2018-Jun-20 07:00N 38°25' W 009°16'4 8.7
2018-Jun-20 06:31N 38°25' W 009°11'3 6.8
2018-Jun-20 06:00N 38°26' W 009°07'0 0.0
2018-Jun-19 10:03N 38°26' W 009°07'0 0.0
2018-Jun-19 10:00N 38°26' W 009°07'0 0.1
2018-Jun-19 09:30N 38°26' W 009°07'0 0.0
2018-Jun-19 09:00N 38°26' W 009°07'11 6.7
2018-Jun-19 07:18N 38°28' W 009°21'2 8.6
2018-Jun-19 07:00N 38°29' W 009°24'4 8.6
2018-Jun-19 06:29N 38°30' W 009°30'4 8.7
2018-Jun-19 05:58N 38°31' W 009°35'4 9.0
2018-Jun-19 05:31N 38°32' W 009°40'5 8.8
2018-Jun-19 05:00N 38°32' W 009°46'3 6.8
2018-Jun-19 04:30N 38°34' W 009°50'3 5.7
2018-Jun-19 04:00N 38°36' W 009°51'2 3.4
2018-Jun-19 03:31N 38°38' W 009°52'2 4.4
2018-Jun-19 03:01N 38°36' W 009°51'0 0.0
2018-Jun-19 02:30N 38°36' W 009°51'0 0.3
2018-Jun-19 02:01N 38°36' W 009°51'0 0.6
2018-Jun-19 01:30N 38°35' W 009°51'0 0.5
2018-Jun-19 00:57N 38°35' W 009°51'0 0.6
2018-Jun-19 00:30N 38°35' W 009°51'0 0.5
2018-Jun-19 00:01N 38°35' W 009°51'0 0.7
2018-Jun-18 23:30N 38°34' W 009°50'0 0.7
2018-Jun-18 23:00N 38°34' W 009°50'0 0.7
2018-Jun-18 22:31N 38°34' W 009°50'0 0.5
2018-Jun-18 22:00N 38°33' W 009°50'0 0.8
2018-Jun-18 21:30N 38°33' W 009°50'0 0.8
2018-Jun-18 21:01N 38°33' W 009°50'0 0.8
2018-Jun-18 20:30N 38°32' W 009°49'3 5.1
2018-Jun-18 20:00N 38°34' W 009°51'4 7.8
2018-Jun-18 19:30N 38°38' W 009°53'3 6.1
2018-Jun-18 19:00N 38°41' W 009°52'1 2.7
2018-Jun-18 18:31N 38°42' W 009°51'1 2.9
2018-Jun-18 18:00N 38°41' W 009°51'0 0.4
2018-Jun-18 17:31N 38°40' W 009°52'0 0.6
2018-Jun-18 17:00N 38°40' W 009°52'0 0.8
2018-Jun-18 16:31N 38°40' W 009°52'0 0.6
2018-Jun-18 16:00N 38°39' W 009°52'0 0.8
2018-Jun-18 15:30N 38°39' W 009°52'0 0.9
2018-Jun-18 15:00N 38°39' W 009°52'0 1.0
2018-Jun-18 14:31N 38°38' W 009°53'0 1.0
2018-Jun-18 14:01N 38°38' W 009°53'0 1.0
2018-Jun-18 13:31N 38°37' W 009°53'0 0.7
2018-Jun-18 13:01N 38°37' W 009°53'1 1.0
2018-Jun-18 12:30N 38°36' W 009°53'0 0.8
2018-Jun-18 12:01N 38°36' W 009°53'1 2.6
2018-Jun-18 11:31N 38°36' W 009°54'1 2.6
2018-Jun-18 11:00N 38°37' W 009°53'2 3.2
2018-Jun-18 10:29N 38°36' W 009°52'4 7.8
2018-Jun-18 09:58N 38°35' W 009°47'4 8.0
2018-Jun-18 09:30N 38°33' W 009°42'4 8.0
2018-Jun-18 09:00N 38°32' W 009°37'4 8.3
2018-Jun-18 08:30N 38°31' W 009°32'4 8.2
2018-Jun-18 08:00N 38°30' W 009°28'4 8.3
2018-Jun-18 07:29N 38°28' W 009°22'4 8.6
2018-Jun-18 06:59N 38°26' W 009°18'4 8.9
2018-Jun-18 06:30N 38°24' W 009°12'5 9.4
2018-Jun-18 06:00N 38°26' W 009°07'  
2018-Jun-14 08:15N 38°26' W 009°07'0 0.4
2018-Jun-14 08:00N 38°26' W 009°07'0 0.1
2018-Jun-14 07:30N 38°26' W 009°07'4 7.1
2018-Jun-14 06:58N 38°25' W 009°11'8 8.6
2018-Jun-14 06:01N 38°27' W 009°21'0 9.0
2018-Jun-14 05:59N 38°27' W 009°21'5 9.0
2018-Jun-14 05:26N 38°28' W 009°28'5 8.7
2018-Jun-14 04:54N 38°29' W 009°33'9 8.3
2018-Jun-14 03:48N 38°31' W 009°45'9 5.2
2018-Jun-14 02:08N 38°37' W 009°52'1 5.7
2018-Jun-14 01:57N 38°38' W 009°51'2 2.9
2018-Jun-14 01:25N 38°37' W 009°52'0 0.5
2018-Jun-14 00:51N 38°36' W 009°52'0 0.8
2018-Jun-14 00:30N 38°36' W 009°52'0 0.8
2018-Jun-13 23:54N 38°36' W 009°52'0 0.8
2018-Jun-13 23:22N 38°35' W 009°51'0 0.8
2018-Jun-13 22:57N 38°35' W 009°51'0 1.0
2018-Jun-13 22:28N 38°35' W 009°51'1 1.0
2018-Jun-13 21:57N 38°34' W 009°51'1 0.8
2018-Jun-13 20:28N 38°33' W 009°50'9 2.8
2018-Jun-13 17:15N 38°42' W 009°51'0 1.1
2018-Jun-13 17:00N 38°42' W 009°51'1 2.0
2018-Jun-13 16:16N 38°41' W 009°51'0 0.4
2018-Jun-13 16:01N 38°41' W 009°51'0 0.7
2018-Jun-13 15:30N 38°40' W 009°52'0 0.7
2018-Jun-13 15:00N 38°40' W 009°52'0 0.9
2018-Jun-13 14:30N 38°39' W 009°52'0 0.8
2018-Jun-13 13:59N 38°39' W 009°52'1 1.1
2018-Jun-13 13:30N 38°39' W 009°52'1 1.1
2018-Jun-13 12:59N 38°38' W 009°53'1 1.1
2018-Jun-13 12:31N 38°38' W 009°53'1 1.0
2018-Jun-13 11:59N 38°37' W 009°53'1 1.1
2018-Jun-13 11:18N 38°36' W 009°53'0 1.0
2018-Jun-13 11:00N 38°36' W 009°53'3 4.2
2018-Jun-13 10:15N 38°35' W 009°49'2 8.2
2018-Jun-13 09:58N 38°34' W 009°46'4 8.2
2018-Jun-13 09:30N 38°33' W 009°41'5 8.4
2018-Jun-13 08:52N 38°31' W 009°35'3 8.1
2018-Jun-13 08:31N 38°30' W 009°32'4 8.2
2018-Jun-13 08:01N 38°29' W 009°27'5 8.6
2018-Jun-13 07:29N 38°27' W 009°21'5 8.8
2018-Jun-13 06:56N 38°25' W 009°16'4 8.6
2018-Jun-13 06:27N 38°25' W 009°10'3 7.6
2018-Jun-13 06:01N 38°26' W 009°07'0 0.2
2018-Jun-13 05:30N 38°26' W 009°07'0 0.0
2018-Jun-12 08:16N 38°26' W 009°07'0 0.0
2018-Jun-12 07:57N 38°26' W 009°07'2 3.9
2018-Jun-12 07:30N 38°25' W 009°09'4 8.5
2018-Jun-12 07:00N 38°25' W 009°14'5 9.0
2018-Jun-12 06:28N 38°26' W 009°20'4 8.8
2018-Jun-12 05:58N 38°27' W 009°25'5 9.0
2018-Jun-12 05:28N 38°28' W 009°31'5 8.8
2018-Jun-12 04:56N 38°30' W 009°37'4 8.7
2018-Jun-12 04:30N 38°31' W 009°41'5 8.5
2018-Jun-12 03:58N 38°32' W 009°47'4 5.7
2018-Jun-12 03:14N 38°35' W 009°51'3 5.1
2018-Jun-12 02:40N 38°38' W 009°52'1 5.2
2018-Jun-12 02:30N 38°38' W 009°51'1 2.5
2018-Jun-12 01:59N 38°37' W 009°52'0 0.8
2018-Jun-12 01:26N 38°37' W 009°52'1 1.4
2018-Jun-12 00:58N 38°38' W 009°52'1 1.7
2018-Jun-12 00:30N 38°37' W 009°52'1 1.6
2018-Jun-12 00:00N 38°36' W 009°51'0 1.0
2018-Jun-11 23:30N 38°36' W 009°51'1 1.0
2018-Jun-11 23:00N 38°36' W 009°51'1 1.0
2018-Jun-11 22:30N 38°35' W 009°50'0 0.6
2018-Jun-11 22:00N 38°35' W 009°50'1 1.1
2018-Jun-11 21:30N 38°34' W 009°50'0 0.9
2018-Jun-11 21:00N 38°34' W 009°50'0 0.8
2018-Jun-11 20:30N 38°34' W 009°50'0 1.0
2018-Jun-11 20:00N 38°33' W 009°49'0 0.9
2018-Jun-11 19:29N 38°33' W 009°49'1 1.5
2018-Jun-11 18:57N 38°33' W 009°50'6 6.7
2018-Jun-11 18:00N 38°39' W 009°53'3 6.0
2018-Jun-11 17:30N 38°42' W 009°51'1 2.4
2018-Jun-11 17:00N 38°41' W 009°51'0 0.6
2018-Jun-11 16:29N 38°41' W 009°52'0 0.9
2018-Jun-11 16:00N 38°40' W 009°52'0 0.7
2018-Jun-11 15:30N 38°40' W 009°52'0 0.7
2018-Jun-11 15:00N 38°40' W 009°52'0 0.8
2018-Jun-11 14:30N 38°39' W 009°53'0 0.8
2018-Jun-11 14:00N 38°39' W 009°53'1 1.0
2018-Jun-11 13:30N 38°38' W 009°53'0 0.8
2018-Jun-11 13:00N 38°38' W 009°53'1 1.1
2018-Jun-11 12:30N 38°37' W 009°53'1 1.0
2018-Jun-11 12:00N 38°37' W 009°53'1 1.1
2018-Jun-11 11:30N 38°36' W 009°53'1 1.1
2018-Jun-11 11:00N 38°36' W 009°53'3 4.8
2018-Jun-11 10:28N 38°35' W 009°50'4 8.6
2018-Jun-11 10:00N 38°33' W 009°45'4 8.5
2018-Jun-11 09:30N 38°32' W 009°40'5 8.3
2018-Jun-11 08:54N 38°31' W 009°34'4 8.3
2018-Jun-11 08:25N 38°29' W 009°29'4 8.7
2018-Jun-11 08:00N 38°28' W 009°25'4 8.6
2018-Jun-11 07:30N 38°26' W 009°20'4 8.4
2018-Jun-11 07:00N 38°25' W 009°15'  

Dump ship's entire track history